Available data for KAFO from the past hour
Metar
KAFO 271335Z AUTO 00000KT 10SM SCT060 OVC095 05/02 A2981 RMK AO2 LTG DSNT E

13:35 UTC

Wind: 0° 0kt

Visibility: 10 SM

Sky: SCT 6000 ft

Temp: 5 deg C / 41 deg F

Dewpoint: 2 deg C / 35.6 deg F

Pressure: 29.81 inHg

The next Board Meeting is: June , 2018           The next Annual Meeting is: Jul 2018

IMG_1868

Please help us keep our taxiways free of debris. The taxiways are only for aircraft.